Latest Weather Observations for Bushy Park

IDT60901

Issued at 4:01 am EST Saturday 29 April 2017 (issued every 10 minutes, with the page automatically refreshed every 10 minutes)

About weather observations | Map of Hobart area stations | Latest observations for Hobart area | Other Formats
Station Details ID: 095003 Name: BUSHY PARK (BUSHY PARK ESTATES) Lat: -42.71 Lon: 146.90 Height: 27.0 m
Data from the previous 72 hours. | See also: Recent months at Bushy Park
Date/Time
EST
Temp
°C
App
Temp
°C
Dew
Point
°C
Rel
Hum
%
Delta-T
°C
Wind Press
QNH
hPa
Press
MSL
hPa
Rain since
9am
mm
Dir  Spd
km/h
Gust
km/h
Spd
kts
Gust
kts
29/04:00am 13.8 9.5 6.8 62 3.4 WNW 19 33 10 18 - - 0.2
29/03:30am 14.0 10.0 6.6 61 3.6 WNW 17 33 9 18 - - 0.2
29/03:00am 14.2 9.2 6.6 60 3.7 WNW 22 35 12 19 - - 0.2
29/02:30am 14.4 10.5 6.9 60 3.7 W 17 32 9 17 - - 0.2
29/02:00am 14.5 12.2 9.1 70 2.8 WNW 11 22 6 12 - - 0.2
29/01:30am 15.4 11.9 8.8 65 3.4 WNW 17 30 9 16 - - 0.2
29/01:00am 15.7 10.4 8.5 62 3.7 WNW 26 48 14 26 - - 0.2
29/12:30am 15.7 10.9 8.7 63 3.6 WNW 24 43 13 23 - - 0.2
29/12:24am 16.1 10.4 8.3 60 4.0 WNW 28 50 15 27 - - 0.2
29/12:00am 15.9 11.8 8.7 62 3.7 WNW 20 41 11 22 - - 0.2
 
Date/Time
EST
Temp
°C
App
Temp
°C
Dew
Point
°C
Rel
Hum
%
Delta-T
°C
Wind Press
QNH
hPa
Press
MSL
hPa
Rain since
9am
mm
Dir  Spd
km/h
Gust
km/h
Spd
kts
Gust
kts
28/11:48pm 16.2 10.6 8.6 60 3.9 W 28 48 15 26 - - 0.2
28/11:30pm 16.2 11.2 8.2 59 4.1 W 24 44 13 24 - - 0.2
28/11:00pm 15.8 10.9 8.6 62 3.7 W 24 43 13 23 - - 0.2
28/10:30pm 12.3 10.4 9.1 81 1.6 NNW 9 13 5 7 - - 0.2
28/10:00pm 12.8 10.6 9.3 79 1.8 NNW 11 15 6 8 - - 0.2
28/09:30pm 13.7 11.9 9.4 75 2.2 NNW 9 13 5 7 - - 0.2
28/09:00pm 13.7 11.5 9.2 74 2.3 NNW 11 13 6 7 - - 0.2
28/08:30pm 13.3 10.6 9.0 75 2.2 NNW 13 19 7 10 - - 0.2
28/08:00pm 13.2 9.7 8.9 75 2.2 NNW 17 24 9 13 - - 0.2
28/07:30pm 13.1 9.9 8.5 73 2.3 NNW 15 19 8 10 - - 0.2
28/07:00pm 13.2 9.9 8.2 71 2.5 NNW 15 17 8 9 - - 0.2
28/06:30pm 13.1 10.1 7.9 70 2.6 N 13 15 7 8 - - 0.2
28/06:00pm 14.4 11.8 7.6 63 3.4 NNW 11 15 6 8 - - 0.2
28/05:30pm 15.2 12.7 8.1 62 3.6 N 11 15 6 8 - - 0.2
28/05:00pm 16.2 13.7 8.2 59 4.1 NNW 11 15 6 8 - - 0.2
28/04:30pm 17.6 13.9 6.3 47 5.6 NNW 15 20 8 11 - - 0.2
28/04:00pm 16.9 14.0 6.4 50 5.2 WSW 11 19 6 10 - - 0.2
28/03:30pm 17.8 14.3 5.6 44 5.9 W 13 24 7 13 - - 0.2
28/03:00pm 18.0 12.7 5.0 42 6.3 W 22 33 12 18 - - 0.2
28/02:30pm 19.3 16.3 5.9 41 6.6 W 11 20 6 11 - - 0.2
28/02:00pm 19.0 16.0 6.2 43 6.4 W 11 17 6 9 - - 0.2
28/01:30pm 19.5 15.9 6.9 44 6.4 WSW 15 26 8 14 - - 0.2
28/01:00pm 19.3 16.0 7.9 47 5.9 WNW 15 24 8 13 - - 0.2
28/12:30pm 17.7 14.6 8.9 56 4.6 N 15 22 8 12 - - 0.0
28/12:00pm 16.3 11.5 9.0 62 3.8 N 24 32 13 17 - - 0.0
28/11:30am 15.8 11.7 8.6 62 3.7 N 20 30 11 16 - - 0.0
28/11:00am 15.0 10.2 8.8 66 3.2 N 24 30 13 16 - - 0.0
28/10:30am 13.2 12.3 10.7 85 1.3 N 6 11 3 6 - - 0.0
28/10:00am 12.1 12.2 10.0 87 1.1 CALM 0 0 0 0 - - 0.0
28/09:30am 11.4 10.2 9.4 87 1.0 N 6 9 3 5 - - 0.0
28/09:00am 10.9 9.4 8.5 85 1.2 N 6 7 3 4 - - 0.0
28/08:30am 10.2 8.1 8.4 89 0.9 NNW 9 13 5 7 - - 0.0
28/08:00am 8.8 6.8 7.3 90 0.7 WNW 7 9 4 5 - - 0.0
28/07:30am 8.3 6.8 7.0 91 0.6 WNW 4 11 2 6 - - 0.0
28/07:00am 8.5 6.7 7.0 90 0.7 WNW 6 9 3 5 - - 0.0
28/06:30am 8.6 6.8 7.1 90 0.7 NW 6 11 3 6 - - 0.0
28/06:00am 9.0 7.0 7.3 89 0.8 NNW 7 11 4 6 - - 0.0
28/05:30am 9.0 5.4 6.9 87 1.0 NNW 15 19 8 10 - - 0.0
28/05:00am 10.2 6.7 7.1 81 1.5 NW 15 20 8 11 - - 0.0
28/04:30am 11.0 8.4 7.7 80 1.6 NNW 11 15 6 8 - - 0.0
28/04:00am 11.0 8.0 7.7 80 1.6 NNW 13 17 7 9 - - 0.0
28/03:30am 10.2 8.0 7.9 86 1.1 NNW 9 13 5 7 - - 0.0
28/03:00am 11.1 8.6 8.3 83 1.4 NW 11 17 6 9 - - 0.0
28/02:30am 10.2 6.9 7.9 86 1.1 N 15 19 8 10 - - 0.0
28/02:00am 10.4 7.1 7.9 84 1.2 N 15 19 8 10 - - 0.0
28/01:30am 10.8 7.2 8.2 84 1.3 N 17 22 9 12 - - 0.0
28/01:00am 10.9 7.8 8.7 86 1.1 N 15 20 8 11 - - 0.0
28/12:30am 9.3 6.2 7.2 87 1.0 NNW 13 19 7 10 - - 0.0
28/12:00am 9.6 6.5 7.3 85 1.1 NNW 13 15 7 8 - - 0.0
 
Date/Time
EST
Temp
°C
App
Temp
°C
Dew
Point
°C
Rel
Hum
%
Delta-T
°C
Wind Press
QNH
hPa
Press
MSL
hPa
Rain since
9am
mm
Dir  Spd
km/h
Gust
km/h
Spd
kts
Gust
kts
27/11:30pm 10.2 7.5 7.5 83 1.3 NW 11 15 6 8 - - 0.0
27/11:00pm 9.4 6.6 6.9 84 1.2 NW 11 15 6 8 - - 0.0
27/10:30pm 10.4 8.4 7.1 80 1.6 NNW 7 11 4 6 - - 0.0
27/10:00pm 11.4 8.7 7.3 76 2.0 NNW 11 15 6 8 - - 0.0
27/09:30pm 12.3 7.8 6.9 69 2.6 N 20 28 11 15 - - 0.0
27/09:00pm 12.0 8.0 6.8 70 2.5 N 17 26 9 14 - - 0.0
27/08:30pm 11.6 8.8 6.8 72 2.3 N 11 19 6 10 - - 0.0
27/08:00pm 11.9 8.3 6.7 70 2.5 N 15 19 8 10 - - 0.0
27/07:30pm 12.2 8.1 6.3 67 2.8 N 17 26 9 14 - - 0.0
27/07:00pm 12.2 6.7 6.1 66 2.9 N 24 32 13 17 - - 0.0
27/06:30pm 12.0 7.8 5.9 66 2.9 N 17 26 9 14 - - 0.0
27/06:00pm 11.8 7.0 5.6 66 2.9 N 20 30 11 16 - - 0.0
27/05:30pm 11.7 8.3 6.0 68 2.7 N 13 20 7 11 - - 0.0
27/05:00pm 12.1 8.9 5.2 62 3.2 N 11 15 6 8 - - 0.0
27/04:30pm 12.5 9.3 5.0 60 3.5 N 11 13 6 7 - - 0.0
27/04:00pm 12.5 9.1 4.2 57 3.8 N 11 13 6 7 - - 0.0
27/03:30pm 12.8 9.4 4.0 55 4.0 N 11 15 6 8 - - 0.0
27/03:00pm 12.7 9.2 3.4 53 4.1 N 11 20 6 11 - - 0.0
27/02:30pm 12.4 8.5 3.5 54 4.0 W 13 26 7 14 - - 0.0
27/02:00pm 12.4 7.2 3.5 54 4.0 WSW 20 35 11 19 - - 0.0
27/01:30pm 12.6 7.8 2.4 50 4.4 WNW 17 28 9 15 - - 0.0
27/01:00pm 12.2 8.1 2.1 50 4.4 NW 13 20 7 11 - - 0.0
27/12:30pm 11.5 8.5 2.3 53 4.0 N 7 13 4 7 - - 0.0
27/12:00pm 10.2 8.0 3.1 61 3.1 E 4 7 2 4 - - 0.0
27/11:30am 9.7 7.1 3.3 64 2.8 NE 6 9 3 5 - - 0.0
27/11:00am 9.0 7.3 4.0 71 2.2 E 2 7 1 4 - - 0.0
27/10:30am 7.9 4.7 3.0 71 2.1 N 9 13 5 7 - - 0.0
27/10:00am 7.4 4.1 2.7 72 2.0 NNE 9 13 5 7 - - 0.0
27/09:30am 6.1 3.4 2.7 79 1.4 NE 6 11 3 6 - - 0.0
27/09:00am 4.3 1.3 2.1 86 0.9 N 7 7 4 4 - - 0.0
27/08:30am 3.2 1.1 1.9 91 0.5 N 2 7 1 4 - - 0.0
27/08:00am 1.4 -1.8 0.9 96 0.2 N 7 9 4 5 - - 0.0
27/07:30am -0.1 - - - - NE 4 7 2 4 - - 0.0
27/07:00am -1.2 - - - - NNW 9 9 5 5 - - 0.0
27/06:30am -1.3 - - - - CALM 0 0 0 0 - - 0.0
27/06:00am -1.0 - - - - NNE 2 7 1 4 - - 0.0
27/05:30am -1.0 - - - - NNW 4 9 2 5 - - 0.0
27/05:00am -0.5 - - - - N 7 9 4 5 - - 0.0
27/04:30am -0.3 - - - - NW 7 9 4 5 - - 0.0
27/04:00am -0.3 - - - - E 2 9 1 5 - - 0.0
27/03:30am -0.1 - - - - N 6 7 3 4 - - 0.0
27/03:00am 0.1 - - - - WNW 6 9 3 5 - - 0.0
27/02:30am 0.0 - - - - N 6 7 3 4 - - 0.0
27/02:00am 0.7 -1.3 -0.1 94 0.3 CALM 0 7 0 4 - - 0.0
27/01:30am 1.1 -0.8 0.3 94 0.3 CALM 0 0 0 0 - - 0.0
27/01:00am 1.6 -1.6 0.8 94 0.3 NNW 7 7 4 4 - - 0.0
27/12:30am 2.1 -1.4 1.1 93 0.4 W 9 9 5 5 - - 0.0
27/12:00am 3.2 0.2 1.9 91 0.5 N 7 9 4 5 - - 0.0
 
Date/Time
EST
Temp
°C
App
Temp
°C
Dew
Point
°C
Rel
Hum
%
Delta-T
°C
Wind Press
QNH
hPa
Press
MSL
hPa
Rain since
9am
mm
Dir  Spd
km/h
Gust
km/h
Spd
kts
Gust
kts
26/11:30pm 3.6 0.6 2.1 90 0.6 NNW 7 9 4 5 - - 0.0
26/11:00pm 3.1 0.1 1.8 91 0.5 W 7 9 4 5 - - 0.0
26/10:30pm 2.6 0.4 1.3 91 0.5 NNE 2 7 1 4 - - 0.0
26/10:00pm 3.1 0.0 1.6 90 0.6 N 7 9 4 5 - - 0.0
26/09:30pm 3.2 0.7 1.7 90 0.6 N 4 7 2 4 - - 0.0
26/09:00pm 3.6 0.2 1.6 87 0.8 NNW 9 11 5 6 - - 0.0
26/08:30pm 3.3 0.4 1.2 86 0.8 WNW 6 11 3 6 - - 0.0
26/08:00pm 4.1 1.1 2.1 87 0.8 N 7 13 4 7 - - 0.0
26/07:30pm 4.3 1.5 1.8 84 1.0 WNW 6 9 3 5 - - 0.0
26/07:00pm 4.9 3.2 1.9 81 1.2 CALM 0 0 0 0 - - 0.0
26/06:30pm 6.0 3.0 2.1 76 1.6 ENE 7 9 4 5 - - 0.0
26/06:00pm 7.4 2.4 1.6 66 2.4 SW 17 26 9 14 - - 0.0
26/05:30pm 8.3 0.5 1.5 62 2.8 SSW 32 43 17 23 - - 0.0
26/05:00pm 9.4 5.4 0.6 54 3.6 SW 11 15 6 8 - - 0.0
26/04:30pm 9.8 6.5 0.2 51 3.9 WSW 7 11 4 6 - - 0.0
26/04:00pm 9.7 4.9 0.4 52 3.8 SW 15 28 8 15 - - 0.0
26/03:30pm 10.1 3.4 1.3 54 3.7 S 26 43 14 23 - - 0.0
26/03:06pm 10.6 3.4 0.4 49 4.2 SSW 28 46 15 25 - - 0.0
26/03:00pm 10.5 3.0 1.2 52 3.9 SSW 30 48 16 26 - - 0.0
26/02:53pm 11.2 4.1 1.3 50 4.2 SSW 28 48 15 26 - - 0.0
26/02:30pm 11.2 5.7 0.3 47 4.5 SSW 19 30 10 16 - - 0.0
26/02:00pm 10.0 4.0 1.1 54 3.7 SW 22 39 12 21 - - 0.0
26/01:30pm 12.4 6.1 -1.2 39 5.5 S 22 30 12 16 - - 0.0
26/01:00pm 12.3 6.1 -0.3 42 5.2 S 22 30 12 16 - - 0.0
26/12:30pm 10.4 5.6 2.5 58 3.4 SW 17 37 9 20 - - 0.0
26/12:00pm 12.1 7.8 1.0 46 4.7 W 13 20 7 11 - - 0.0
26/11:30am 12.7 8.8 1.3 45 4.9 W 11 20 6 11 - - 0.0
26/11:00am 11.7 6.7 1.1 48 4.4 WSW 17 30 9 16 - - 0.0
26/10:30am 11.1 5.9 0.2 47 4.5 WSW 17 26 9 14 - - 0.0
26/10:00am 11.5 7.3 1.4 50 4.3 W 13 20 7 11 - - 0.0
26/09:30am 9.9 5.3 1.6 56 3.5 WSW 15 22 8 12 - - 0.0
26/09:00am 9.9 5.5 0.1 50 3.9 W 13 30 7 16 - - 0.0
26/08:30am 9.2 6.9 2.7 64 2.8 NW 4 13 2 7 - - 0.0
26/08:00am 9.1 6.4 2.8 64 2.7 WNW 6 11 3 6 - - 0.0
26/07:30am 8.9 6.3 4.4 73 2.0 WSW 7 13 4 7 - - 0.0
26/07:00am 9.1 5.1 3.1 66 2.6 W 13 20 7 11 - - 0.0
26/06:30am 9.3 4.6 3.3 66 2.6 WSW 17 26 9 14 - - 0.0
26/06:00am 9.1 5.0 4.4 72 2.1 WSW 15 24 8 13 - - 0.0
26/05:30am 9.5 5.9 5.1 74 2.0 WSW 13 19 7 10 - - 0.0
26/05:00am 9.8 6.3 5.5 74 2.0 WSW 13 19 7 10 - - 0.0
26/04:30am 10.0 6.9 5.4 73 2.1 W 11 17 6 9 - - 0.0

Latest Capital City Observations: Canberra | Sydney | Melbourne | Brisbane | Adelaide | Perth | Hobart | Darwin

Other Formats:

Comma delimited format used in spreadsheet applications
http://www.bom.gov.au/fwo/IDT60901/IDT60901.94964.axf

JavaScript Object Notation format (JSON) in row-major order
http://www.bom.gov.au/fwo/IDT60901/IDT60901.94964.json